KPRC/PRC METAR and TAF weather

Enter ICAO airport designator
Station Type Date Time Source
KPRC METAR 2019/06/20 06:53 UTC NOAA

KPRC 200653Z AUTO 21009KT 10SM CLR 20/M06 A3009 RMK AO2 SLP099 T02001056 403220128


Station Type Date Time Source
KPRC Decoded METAR 2019/06/20 06:53 UTC NOAA

PRESCOTT LOVE FIELD, AZ, United States (KPRC) 34-39N 112-25W 1524M
Jun 20, 2019 - 02:53 AM EDT / 2019.06.20 0653 UTC
Wind: from the SSW (210 degrees) at 10 MPH (9 KT):0
Visibility: 10 mile(s):0
Sky conditions: clear
Temperature: 68.0 F (20.0 C)
Dew Point: 21.9 F (-5.6 C)
Relative Humidity: 17%
Pressure (altimeter): 30.09 in. Hg (1018 hPa)
ob: KPRC 200653Z AUTO 21009KT 10SM CLR 20/M06 A3009 RMK AO2 SLP099 T02001056 403220128
cycle: 7

Station Type Date Time Source
KPRC TAF 2019/06/20 06:30 UTC NOAA

TAF KPRC 200528Z 2006/2106 20006KT P6SM SKC
FM201700 21015G25KT P6SM SKC
FM210300 20010KT P6SM SKC

Example: see airport list